sensor_id;sensor_type;location;lat;lon;timestamp;pressure;altitude;pressure_sealevel;temperature;humidity
44359;BME280;30077;52.474;13.326;2023-01-01T00:03:59;100431.09;;;14.29;83.33
44359;BME280;30077;52.474;13.326;2023-01-01T00:08:59;100439.53;;;14.37;82.04
44359;BME280;30077;52.474;13.326;2023-01-01T00:14:18;100449.31;;;14.38;81.88
44359;BME280;30077;52.474;13.326;2023-01-01T00:19:18;100448.66;;;14.35;81.35
44359;BME280;30077;52.474;13.326;2023-01-01T00:24:19;100448.94;;;14.30;81.59
44359;BME280;30077;52.474;13.326;2023-01-01T00:29:19;100463.59;;;14.25;81.08
44359;BME280;30077;52.474;13.326;2023-01-01T00:34:19;100456.59;;;14.22;80.75
44359;BME280;30077;52.474;13.326;2023-01-01T00:39:19;100469.06;;;14.23;79.49
44359;BME280;30077;52.474;13.326;2023-01-01T00:44:20;100467.94;;;14.27;78.75
44359;BME280;30077;52.474;13.326;2023-01-01T00:49:20;100462.34;;;14.16;78.79
44359;BME280;30077;52.474;13.326;2023-01-01T00:54:20;100475.03;;;14.14;78.51
44359;BME280;30077;52.474;13.326;2023-01-01T00:59:20;100472.16;;;14.17;77.44
44359;BME280;30077;52.474;13.326;2023-01-01T01:04:21;100478.66;;;14.27;76.13
44359;BME280;30077;52.474;13.326;2023-01-01T01:09:21;100484.91;;;14.13;76.99
44359;BME280;30077;52.474;13.326;2023-01-01T01:14:21;100491.19;;;14.12;76.35
44359;BME280;30077;52.474;13.326;2023-01-01T01:19:21;100479.03;;;14.07;76.77
44359;BME280;30077;52.474;13.326;2023-01-01T01:24:24;100491.69;;;14.05;76.32
44359;BME280;30077;52.474;13.326;2023-01-01T01:29:24;100481.13;;;14.16;75.70
44359;BME280;30077;52.474;13.326;2023-01-01T01:34:26;100484.03;;;14.13;75.27
44359;BME280;30077;52.474;13.326;2023-01-01T01:39:26;100481.72;;;14.07;75.83
44359;BME280;30077;52.474;13.326;2023-01-01T01:49:52;100475.69;;;14.03;74.62
44359;BME280;30077;52.474;13.326;2023-01-01T01:54:53;100478.84;;;14.10;74.01
44359;BME280;30077;52.474;13.326;2023-01-01T01:59:55;100486.91;;;14.10;73.68
44359;BME280;30077;52.474;13.326;2023-01-01T02:04:56;100488.63;;;14.11;73.32
44359;BME280;30077;52.474;13.326;2023-01-01T02:09:57;100494.53;;;14.16;73.07
44359;BME280;30077;52.474;13.326;2023-01-01T02:14:58;100502.03;;;14.25;72.12
44359;BME280;30077;52.474;13.326;2023-01-01T02:20:26;100490.16;;;14.29;71.76
44359;BME280;30077;52.474;13.326;2023-01-01T02:25:37;100489.47;;;14.26;71.96
44359;BME280;30077;52.474;13.326;2023-01-01T02:30:44;100490.94;;;14.17;71.97
44359;BME280;30077;52.474;13.326;2023-01-01T02:35:50;100487.56;;;14.13;72.03
44359;BME280;30077;52.474;13.326;2023-01-01T02:41:12;100481.13;;;14.16;72.23
44359;BME280;30077;52.474;13.326;2023-01-01T02:46:14;100481.53;;;14.10;71.97
44359;BME280;30077;52.474;13.326;2023-01-01T02:51:28;100467.75;;;14.02;72.27
44359;BME280;30077;52.474;13.326;2023-01-01T02:56:37;100463.50;;;13.97;72.15
44359;BME280;30077;52.474;13.326;2023-01-01T03:01:45;100467.94;;;13.99;72.09
44359;BME280;30077;52.474;13.326;2023-01-01T03:12:20;100483.25;;;13.96;72.09
44359;BME280;30077;52.474;13.326;2023-01-01T03:17:37;100482.50;;;13.94;71.88
44359;BME280;30077;52.474;13.326;2023-01-01T03:22:40;100480.94;;;13.90;72.32
44359;BME280;30077;52.474;13.326;2023-01-01T03:27:45;100496.84;;;13.93;71.84
44359;BME280;30077;52.474;13.326;2023-01-01T03:32:54;100495.41;;;13.88;72.54
44359;BME280;30077;52.474;13.326;2023-01-01T03:38:13;100481.34;;;13.84;72.46
44359;BME280;30077;52.474;13.326;2023-01-01T03:43:22;100491.00;;;13.87;72.28
44359;BME280;30077;52.474;13.326;2023-01-01T03:48:26;100495.22;;;13.77;72.92
44359;BME280;30077;52.474;13.326;2023-01-01T03:53:38;100507.53;;;13.65;73.49
44359;BME280;30077;52.474;13.326;2023-01-01T03:58:44;100512.88;;;13.65;73.14
44359;BME280;30077;52.474;13.326;2023-01-01T04:03:47;100532.13;;;13.57;73.68
44359;BME280;30077;52.474;13.326;2023-01-01T04:08:50;100534.91;;;13.56;73.53
44359;BME280;30077;52.474;13.326;2023-01-01T04:13:52;100538.53;;;13.55;73.33
44359;BME280;30077;52.474;13.326;2023-01-01T04:18:53;100547.69;;;13.51;73.70
44359;BME280;30077;52.474;13.326;2023-01-01T04:23:53;100547.78;;;13.49;73.88
44359;BME280;30077;52.474;13.326;2023-01-01T04:28:53;100550.56;;;13.47;73.89
44359;BME280;30077;52.474;13.326;2023-01-01T04:33:53;100563.47;;;13.41;74.00
44359;BME280;30077;52.474;13.326;2023-01-01T04:38:54;100561.31;;;13.32;74.68
44359;BME280;30077;52.474;13.326;2023-01-01T04:43:54;100552.06;;;13.37;74.48
44359;BME280;30077;52.474;13.326;2023-01-01T04:48:55;100570.22;;;13.32;74.58
44359;BME280;30077;52.474;13.326;2023-01-01T04:53:58;100565.63;;;13.34;74.56
44359;BME280;30077;52.474;13.326;2023-01-01T04:58:58;100563.13;;;13.31;75.01
44359;BME280;30077;52.474;13.326;2023-01-01T05:03:59;100565.22;;;13.26;75.08
44359;BME280;30077;52.474;13.326;2023-01-01T05:09:00;100562.44;;;13.28;75.23
44359;BME280;30077;52.474;13.326;2023-01-01T05:14:03;100566.09;;;13.27;75.07
44359;BME280;30077;52.474;13.326;2023-01-01T05:19:04;100571.97;;;13.33;75.16
44359;BME280;30077;52.474;13.326;2023-01-01T05:24:07;100575.78;;;13.29;75.06
44359;BME280;30077;52.474;13.326;2023-01-01T05:29:08;100588.38;;;13.27;75.30
44359;BME280;30077;52.474;13.326;2023-01-01T05:34:08;100586.78;;;13.23;75.80
44359;BME280;30077;52.474;13.326;2023-01-01T05:39:10;100595.78;;;13.22;76.00
44359;BME280;30077;52.474;13.326;2023-01-01T05:44:11;100590.59;;;13.19;76.14
44359;BME280;30077;52.474;13.326;2023-01-01T05:49:12;100585.44;;;13.32;75.34
44359;BME280;30077;52.474;13.326;2023-01-01T05:54:12;100586.53;;;13.43;74.95
44359;BME280;30077;52.474;13.326;2023-01-01T05:59:12;100589.41;;;13.40;74.98
44359;BME280;30077;52.474;13.326;2023-01-01T06:04:14;100595.63;;;13.41;74.94
44359;BME280;30077;52.474;13.326;2023-01-01T06:09:14;100594.94;;;13.37;75.08
44359;BME280;30077;52.474;13.326;2023-01-01T06:14:14;100585.09;;;13.38;75.08
44359;BME280;30077;52.474;13.326;2023-01-01T06:19:15;100598.38;;;13.39;74.95
44359;BME280;30077;52.474;13.326;2023-01-01T06:24:15;100608.75;;;13.45;74.77
44359;BME280;30077;52.474;13.326;2023-01-01T06:29:15;100612.56;;;13.41;75.10
44359;BME280;30077;52.474;13.326;2023-01-01T06:34:15;100603.38;;;13.45;74.56
44359;BME280;30077;52.474;13.326;2023-01-01T06:39:16;100602.88;;;13.55;74.14
44359;BME280;30077;52.474;13.326;2023-01-01T06:44:16;100617.72;;;13.60;73.61
44359;BME280;30077;52.474;13.326;2023-01-01T06:49:16;100629.41;;;13.59;73.74
44359;BME280;30077;52.474;13.326;2023-01-01T06:54:16;100626.53;;;13.62;73.47
44359;BME280;30077;52.474;13.326;2023-01-01T06:59:17;100620.66;;;13.56;73.94
44359;BME280;30077;52.474;13.326;2023-01-01T07:04:17;100625.75;;;13.60;73.55
44359;BME280;30077;52.474;13.326;2023-01-01T07:09:17;100637.44;;;13.59;73.63
44359;BME280;30077;52.474;13.326;2023-01-01T07:14:18;100639.09;;;13.62;73.46
44359;BME280;30077;52.474;13.326;2023-01-01T07:19:18;100640.97;;;13.60;73.63
44359;BME280;30077;52.474;13.326;2023-01-01T07:24:20;100660.59;;;13.60;73.54
44359;BME280;30077;52.474;13.326;2023-01-01T07:29:20;100667.00;;;13.58;73.89
44359;BME280;30077;52.474;13.326;2023-01-01T07:34:20;100672.97;;;13.63;73.70
44359;BME280;30077;52.474;13.326;2023-01-01T07:39:22;100663.69;;;13.68;73.65
44359;BME280;30077;52.474;13.326;2023-01-01T07:44:23;100664.38;;;13.72;73.29
44359;BME280;30077;52.474;13.326;2023-01-01T07:49:23;100673.22;;;13.74;73.11
44359;BME280;30077;52.474;13.326;2023-01-01T07:54:23;100690.31;;;13.87;72.69
44359;BME280;30077;52.474;13.326;2023-01-01T07:59:23;100684.53;;;13.79;73.02
44359;BME280;30077;52.474;13.326;2023-01-01T08:04:24;100690.50;;;13.84;72.69
44359;BME280;30077;52.474;13.326;2023-01-01T08:09:25;100706.41;;;13.87;72.61
44359;BME280;30077;52.474;13.326;2023-01-01T08:14:25;100705.28;;;13.91;72.54
44359;BME280;30077;52.474;13.326;2023-01-01T08:19:26;100700.50;;;13.96;72.48
44359;BME280;30077;52.474;13.326;2023-01-01T08:24:26;100692.84;;;14.05;72.44
44359;BME280;30077;52.474;13.326;2023-01-01T08:29:26;100722.19;;;14.08;72.46
44359;BME280;30077;52.474;13.326;2023-01-01T08:34:26;100722.53;;;14.17;71.89
44359;BME280;30077;52.474;13.326;2023-01-01T08:39:27;100725.72;;;14.24;71.75
44359;BME280;30077;52.474;13.326;2023-01-01T08:44:27;100741.81;;;14.24;71.86
44359;BME280;30077;52.474;13.326;2023-01-01T08:49:28;100736.44;;;14.24;71.88
44359;BME280;30077;52.474;13.326;2023-01-01T08:54:29;100752.38;;;14.41;71.24
44359;BME280;30077;52.474;13.326;2023-01-01T08:59:29;100756.44;;;14.34;71.63
44359;BME280;30077;52.474;13.326;2023-01-01T09:04:29;100759.09;;;14.34;71.62
44359;BME280;30077;52.474;13.326;2023-01-01T09:09:29;100770.59;;;14.36;71.66
44359;BME280;30077;52.474;13.326;2023-01-01T09:14:31;100783.28;;;14.49;71.25
44359;BME280;30077;52.474;13.326;2023-01-01T09:19:31;100778.72;;;14.51;71.26
44359;BME280;30077;52.474;13.326;2023-01-01T09:24:32;100805.28;;;14.55;71.33
44359;BME280;30077;52.474;13.326;2023-01-01T09:29:32;100810.78;;;14.54;71.36
44359;BME280;30077;52.474;13.326;2023-01-01T09:34:32;100812.50;;;14.55;71.61
44359;BME280;30077;52.474;13.326;2023-01-01T09:39:32;100811.38;;;14.73;71.14
44359;BME280;30077;52.474;13.326;2023-01-01T09:44:48;100810.69;;;15.00;69.87
44359;BME280;30077;52.474;13.326;2023-01-01T09:49:51;100804.09;;;15.20;69.28
44359;BME280;30077;52.474;13.326;2023-01-01T09:55:00;100815.78;;;15.19;69.37
44359;BME280;30077;52.474;13.326;2023-01-01T10:00:05;100813.28;;;15.15;69.28
44359;BME280;30077;52.474;13.326;2023-01-01T10:10:51;100826.94;;;15.41;68.62
44359;BME280;30077;52.474;13.326;2023-01-01T10:16:12;100848.94;;;15.48;68.28
44359;BME280;30077;52.474;13.326;2023-01-01T10:21:17;100830.47;;;15.41;68.57
44359;BME280;30077;52.474;13.326;2023-01-01T10:26:23;100839.22;;;15.45;68.50
44359;BME280;30077;52.474;13.326;2023-01-01T10:31:30;100845.47;;;15.46;68.55
44359;BME280;30077;52.474;13.326;2023-01-01T10:36:31;100845.09;;;15.52;68.47
44359;BME280;30077;52.474;13.326;2023-01-01T10:41:32;100857.75;;;15.50;68.59
44359;BME280;30077;52.474;13.326;2023-01-01T10:46:34;100859.56;;;15.49;68.47
44359;BME280;30077;52.474;13.326;2023-01-01T10:51:41;100856.88;;;15.49;68.58
44359;BME280;30077;52.474;13.326;2023-01-01T10:56:42;100854.97;;;15.51;68.52
44359;BME280;30077;52.474;13.326;2023-01-01T11:01:45;100851.81;;;15.59;67.60
44359;BME280;30077;52.474;13.326;2023-01-01T11:06:46;100855.25;;;15.61;67.79
44359;BME280;30077;52.474;13.326;2023-01-01T11:11:54;100862.66;;;15.57;67.79
44359;BME280;30077;52.474;13.326;2023-01-01T11:16:56;100891.56;;;15.54;68.07
44359;BME280;30077;52.474;13.326;2023-01-01T11:21:57;100899.44;;;15.57;67.50
44359;BME280;30077;52.474;13.326;2023-01-01T11:27:21;100902.13;;;15.57;67.21
44359;BME280;30077;52.474;13.326;2023-01-01T11:32:30;100870.63;;;15.45;67.65
44359;BME280;30077;52.474;13.326;2023-01-01T11:37:36;100894.84;;;15.59;67.36
44359;BME280;30077;52.474;13.326;2023-01-01T11:42:44;100878.81;;;15.72;66.82
44359;BME280;30077;52.474;13.326;2023-01-01T11:48:33;100868.34;;;15.81;66.96
44359;BME280;30077;52.474;13.326;2023-01-01T12:04:18;100899.28;;;15.74;67.14
44359;BME280;30077;52.474;13.326;2023-01-01T12:09:42;100891.31;;;15.73;67.41
44359;BME280;30077;52.474;13.326;2023-01-01T12:15:00;100913.09;;;15.82;67.22
44359;BME280;30077;52.474;13.326;2023-01-01T12:20:12;100909.00;;;15.77;67.61
44359;BME280;30077;52.474;13.326;2023-01-01T12:25:18;100911.56;;;15.78;67.66
44359;BME280;30077;52.474;13.326;2023-01-01T12:41:07;100898.94;;;15.64;68.64
44359;BME280;30077;52.474;13.326;2023-01-01T12:46:18;100884.06;;;15.59;69.25
44359;BME280;30077;52.474;13.326;2023-01-01T12:57:08;100893.66;;;15.49;69.68
44359;BME280;30077;52.474;13.326;2023-01-01T13:02:19;100898.66;;;15.40;70.22
44359;BME280;30077;52.474;13.326;2023-01-01T13:07:35;100892.00;;;15.32;70.94
44359;BME280;30077;52.474;13.326;2023-01-01T13:12:37;100904.03;;;15.26;71.12
44359;BME280;30077;52.474;13.326;2023-01-01T13:17:38;100914.28;;;15.20;72.21
44359;BME280;30077;52.474;13.326;2023-01-01T13:22:39;100918.78;;;15.19;71.62
44359;BME280;30077;52.474;13.326;2023-01-01T13:28:02;100923.56;;;15.14;72.13
44359;BME280;30077;52.474;13.326;2023-01-01T13:33:25;100932.19;;;15.05;72.57
44359;BME280;30077;52.474;13.326;2023-01-01T13:43:47;100951.78;;;14.91;73.26
44359;BME280;30077;52.474;13.326;2023-01-01T13:59:45;100985.25;;;14.69;74.73
44359;BME280;30077;52.474;13.326;2023-01-01T14:04:59;101009.88;;;14.62;75.32
44359;BME280;30077;52.474;13.326;2023-01-01T14:20:31;101012.75;;;14.41;76.67
44359;BME280;30077;52.474;13.326;2023-01-01T14:25:33;101007.38;;;14.26;77.58
44359;BME280;30077;52.474;13.326;2023-01-01T14:30:34;101010.66;;;14.15;78.46
44359;BME280;30077;52.474;13.326;2023-01-01T14:35:34;101007.84;;;14.01;79.49
44359;BME280;30077;52.474;13.326;2023-01-01T14:40:34;101010.56;;;13.83;80.72
44359;BME280;30077;52.474;13.326;2023-01-01T14:45:35;101011.16;;;13.72;81.55
44359;BME280;30077;52.474;13.326;2023-01-01T14:50:36;101031.09;;;13.67;82.20
44359;BME280;30077;52.474;13.326;2023-01-01T14:55:41;101035.03;;;13.60;83.06
44359;BME280;30077;52.474;13.326;2023-01-01T15:00:43;101030.13;;;13.51;83.73
44359;BME280;30077;52.474;13.326;2023-01-01T15:05:45;101032.69;;;13.36;84.85
44359;BME280;30077;52.474;13.326;2023-01-01T15:10:56;101040.53;;;13.22;86.04
44359;BME280;30077;52.474;13.326;2023-01-01T15:16:15;101050.09;;;13.09;86.99
44359;BME280;30077;52.474;13.326;2023-01-01T15:21:48;101075.59;;;12.98;87.99
44359;BME280;30077;52.474;13.326;2023-01-01T15:26:55;101077.19;;;13.02;88.56
44359;BME280;30077;52.474;13.326;2023-01-01T15:31:58;101074.94;;;13.12;88.03
44359;BME280;30077;52.474;13.326;2023-01-01T15:37:12;101083.75;;;13.14;88.25
44359;BME280;30077;52.474;13.326;2023-01-01T15:42:36;101089.47;;;13.07;88.99
44359;BME280;30077;52.474;13.326;2023-01-01T15:47:37;101105.19;;;12.95;89.57
44359;BME280;30077;52.474;13.326;2023-01-01T15:52:37;101117.00;;;12.91;90.26
44359;BME280;30077;52.474;13.326;2023-01-01T15:57:48;101105.84;;;12.82;90.73
44359;BME280;30077;52.474;13.326;2023-01-01T16:02:51;101103.72;;;12.71;91.66
44359;BME280;30077;52.474;13.326;2023-01-01T16:07:59;101113.16;;;12.59;92.53
44359;BME280;30077;52.474;13.326;2023-01-01T16:13:00;101118.09;;;12.49;93.17
44359;BME280;30077;52.474;13.326;2023-01-01T16:18:01;101111.41;;;12.39;93.82
44359;BME280;30077;52.474;13.326;2023-01-01T16:23:03;101111.75;;;12.32;94.88
44359;BME280;30077;52.474;13.326;2023-01-01T16:28:03;101109.94;;;12.32;95.04
44359;BME280;30077;52.474;13.326;2023-01-01T16:33:12;101116.25;;;12.31;94.32
44359;BME280;30077;52.474;13.326;2023-01-01T16:38:13;101118.38;;;12.23;95.14
44359;BME280;30077;52.474;13.326;2023-01-01T16:43:16;101117.94;;;12.13;95.80
44359;BME280;30077;52.474;13.326;2023-01-01T16:48:16;101120.94;;;12.06;96.63
44359;BME280;30077;52.474;13.326;2023-01-01T16:53:16;101119.31;;;12.01;97.54
44359;BME280;30077;52.474;13.326;2023-01-01T16:58:17;101123.88;;;11.99;97.60
44359;BME280;30077;52.474;13.326;2023-01-01T17:03:19;101131.16;;;11.96;97.98
44359;BME280;30077;52.474;13.326;2023-01-01T17:08:19;101147.22;;;11.96;98.52
44359;BME280;30077;52.474;13.326;2023-01-01T17:13:19;101150.63;;;11.99;98.69
44359;BME280;30077;52.474;13.326;2023-01-01T17:18:19;101143.34;;;12.03;98.49
44359;BME280;30077;52.474;13.326;2023-01-01T17:23:19;101148.72;;;12.01;98.86
44359;BME280;30077;52.474;13.326;2023-01-01T17:28:20;101146.00;;;12.03;99.30
44359;BME280;30077;52.474;13.326;2023-01-01T17:33:20;101147.53;;;12.09;98.92
44359;BME280;30077;52.474;13.326;2023-01-01T17:38:20;101148.47;;;12.08;99.02
44359;BME280;30077;52.474;13.326;2023-01-01T17:43:21;101144.00;;;12.08;99.18
44359;BME280;30077;52.474;13.326;2023-01-01T17:48:21;101136.69;;;12.12;98.85
44359;BME280;30077;52.474;13.326;2023-01-01T17:53:23;101144.00;;;12.08;99.00
44359;BME280;30077;52.474;13.326;2023-01-01T17:58:23;101140.44;;;12.08;99.17
44359;BME280;30077;52.474;13.326;2023-01-01T18:03:25;101146.78;;;12.05;99.20
44359;BME280;30077;52.474;13.326;2023-01-01T18:08:29;101144.19;;;12.03;99.45
44359;BME280;30077;52.474;13.326;2023-01-01T18:13:32;101139.66;;;12.06;99.25
44359;BME280;30077;52.474;13.326;2023-01-01T18:18:36;101140.44;;;12.08;99.75
44359;BME280;30077;52.474;13.326;2023-01-01T18:23:37;101144.06;;;12.07;99.70
44359;BME280;30077;52.474;13.326;2023-01-01T18:28:38;101147.81;;;12.02;100.00
44359;BME280;30077;52.474;13.326;2023-01-01T18:33:39;101139.22;;;11.94;100.00
44359;BME280;30077;52.474;13.326;2023-01-01T18:38:40;101153.75;;;11.89;100.00
44359;BME280;30077;52.474;13.326;2023-01-01T18:43:43;101153.97;;;11.84;100.00
44359;BME280;30077;52.474;13.326;2023-01-01T18:48:43;101159.41;;;11.81;100.00
44359;BME280;30077;52.474;13.326;2023-01-01T18:53:44;101164.75;;;11.81;100.00
44359;BME280;30077;52.474;13.326;2023-01-01T18:58:44;101168.94;;;11.88;100.00
44359;BME280;30077;52.474;13.326;2023-01-01T19:03:51;101170.78;;;11.86;100.00
44359;BME280;30077;52.474;13.326;2023-01-01T19:09:00;101173.47;;;11.86;100.00
44359;BME280;30077;52.474;13.326;2023-01-01T19:14:16;101169.09;;;11.84;100.00
44359;BME280;30077;52.474;13.326;2023-01-01T19:19:18;101168.19;;;11.83;100.00
44359;BME280;30077;52.474;13.326;2023-01-01T19:24:22;101164.66;;;11.84;100.00
44359;BME280;30077;52.474;13.326;2023-01-01T19:29:24;101163.72;;;11.85;100.00
44359;BME280;30077;52.474;13.326;2023-01-01T19:34:27;101162.75;;;11.86;100.00
44359;BME280;30077;52.474;13.326;2023-01-01T19:39:27;101158.25;;;11.88;100.00
44359;BME280;30077;52.474;13.326;2023-01-01T19:44:32;101155.28;;;11.94;99.68
44359;BME280;30077;52.474;13.326;2023-01-01T19:49:33;101158.63;;;11.99;99.20
44359;BME280;30077;52.474;13.326;2023-01-01T19:54:35;101155.72;;;12.06;98.92
44359;BME280;30077;52.474;13.326;2023-01-01T19:59:35;101147.69;;;12.06;98.17
44359;BME280;30077;52.474;13.326;2023-01-01T20:04:35;101136.91;;;12.07;97.98
44359;BME280;30077;52.474;13.326;2023-01-01T20:09:35;101136.09;;;12.05;97.98
44359;BME280;30077;52.474;13.326;2023-01-01T20:14:35;101129.88;;;12.04;97.87
44359;BME280;30077;52.474;13.326;2023-01-01T20:19:36;101126.28;;;12.06;97.72
44359;BME280;30077;52.474;13.326;2023-01-01T20:24:39;101117.31;;;12.07;97.74
44359;BME280;30077;52.474;13.326;2023-01-01T20:29:41;101117.31;;;12.07;97.81
44359;BME280;30077;52.474;13.326;2023-01-01T20:34:41;101111.91;;;12.08;97.78
44359;BME280;30077;52.474;13.326;2023-01-01T20:39:42;101114.66;;;12.07;97.75
44359;BME280;30077;52.474;13.326;2023-01-01T20:44:42;101112.94;;;12.06;97.28
44359;BME280;30077;52.474;13.326;2023-01-01T20:49:43;101107.56;;;12.06;97.36
44359;BME280;30077;52.474;13.326;2023-01-01T20:54:43;101108.50;;;12.04;97.46
44359;BME280;30077;52.474;13.326;2023-01-01T20:59:43;101097.91;;;12.01;97.18
44359;BME280;30077;52.474;13.326;2023-01-01T21:04:44;101104.94;;;12.04;97.18
44359;BME280;30077;52.474;13.326;2023-01-01T21:09:44;101122.53;;;12.10;96.97
44359;BME280;30077;52.474;13.326;2023-01-01T21:14:45;101113.50;;;12.12;96.84
44359;BME280;30077;52.474;13.326;2023-01-01T21:19:46;101083.06;;;12.15;96.90
44359;BME280;30077;52.474;13.326;2023-01-01T21:24:46;101086.56;;;12.17;96.94
44359;BME280;30077;52.474;13.326;2023-01-01T21:29:48;101092.78;;;12.17;97.83
44359;BME280;30077;52.474;13.326;2023-01-01T21:34:52;101108.75;;;12.19;96.91
44359;BME280;30077;52.474;13.326;2023-01-01T21:39:53;101106.94;;;12.19;96.80
44359;BME280;30077;52.474;13.326;2023-01-01T21:44:55;101098.88;;;12.21;97.40
44359;BME280;30077;52.474;13.326;2023-01-01T21:49:56;101101.47;;;12.22;97.91
44359;BME280;30077;52.474;13.326;2023-01-01T21:54:56;101114.78;;;12.24;98.93
44359;BME280;30077;52.474;13.326;2023-01-01T21:59:57;101118.38;;;12.23;97.86
44359;BME280;30077;52.474;13.326;2023-01-01T22:04:59;101116.63;;;12.22;98.18
44359;BME280;30077;52.474;13.326;2023-01-01T22:10:13;101109.56;;;12.21;98.25
44359;BME280;30077;52.474;13.326;2023-01-01T22:20:30;101113.16;;;12.20;98.77
44359;BME280;30077;52.474;13.326;2023-01-01T22:25:32;101120.25;;;12.21;98.84
44359;BME280;30077;52.474;13.326;2023-01-01T22:30:40;101111.44;;;12.19;98.90
44359;BME280;30077;52.474;13.326;2023-01-01T22:35:41;101096.25;;;12.19;98.96
44359;BME280;30077;52.474;13.326;2023-01-01T22:40:41;101090.03;;;12.19;99.21
44359;BME280;30077;52.474;13.326;2023-01-01T22:45:43;101088.28;;;12.18;99.16
44359;BME280;30077;52.474;13.326;2023-01-01T22:50:45;101091.91;;;12.17;99.31
44359;BME280;30077;52.474;13.326;2023-01-01T22:55:46;101086.56;;;12.17;99.51
44359;BME280;30077;52.474;13.326;2023-01-01T23:00:46;101078.53;;;12.17;99.41
44359;BME280;30077;52.474;13.326;2023-01-01T23:05:47;101056.41;;;12.13;99.35
44359;BME280;30077;52.474;13.326;2023-01-01T23:10:47;101058.19;;;12.13;99.54
44359;BME280;30077;52.474;13.326;2023-01-01T23:15:48;101049.25;;;12.14;99.39
44359;BME280;30077;52.474;13.326;2023-01-01T23:21:04;101038.56;;;12.14;99.69
44359;BME280;30077;52.474;13.326;2023-01-01T23:26:07;101032.41;;;12.12;100.00
44359;BME280;30077;52.474;13.326;2023-01-01T23:31:09;101029.72;;;12.12;100.00
44359;BME280;30077;52.474;13.326;2023-01-01T23:36:11;101012.81;;;12.11;100.00
44359;BME280;30077;52.474;13.326;2023-01-01T23:41:12;101006.72;;;12.08;99.97
44359;BME280;30077;52.474;13.326;2023-01-01T23:46:13;100997.94;;;12.06;99.56
44359;BME280;30077;52.474;13.326;2023-01-01T23:51:15;100998.84;;;12.04;99.81
44359;BME280;30077;52.474;13.326;2023-01-01T23:56:15;100987.22;;;12.06;99.60
